Time;durP1;ratioP1;P1;durP2;ratioP2;P2;SDS_P1;SDS_P2;PMS_P1;PMS_P2;Temp;Humidity;BMP_temperature;BMP_pressure;BME280_temperature;BME280_humidity;BME280_pressure;Samples;Min_cycle;Max_cycle;Signal;HPM_P1;HPM_P2
2022/11/20 00:01:06;;;;;;;42.83;26.63;;;2.60;99.90;;;;;;5091668;28;20020;-52
2022/11/20 00:03:32;;;;;;;43.38;26.13;;;2.60;99.90;;;;;;5091690;28;20020;-55
2022/11/20 00:06:02;;;;;;;58.90;30.88;;;2.70;99.90;;;;;;5091644;28;20012;-52
2022/11/20 00:08:28;;;;;;;76.45;38.15;;;2.70;99.90;;;;;;5091522;28;20035;-52
2022/11/20 00:10:54;;;;;;;59.55;32.33;;;2.70;99.90;;;;;;5091548;28;20025;-52
2022/11/20 00:13:19;;;;;;;49.65;29.73;;;2.70;99.90;;;;;;5091631;28;20020;-52
2022/11/20 00:15:45;;;;;;;51.65;27.05;;;2.80;99.90;;;;;;5091436;28;20050;-52
2022/11/20 00:18:11;;;;;;;50.78;29.17;;;2.70;99.90;;;;;;5091607;28;20486;-52
2022/11/20 00:21:29;;;;;;;45.28;27.27;;;2.80;99.90;;;;;;5091198;28;20488;-51
2022/11/20 00:23:56;;;;;;;41.15;26.63;;;2.80;99.90;;;;;;5091366;28;20028;-50
2022/11/20 00:26:24;;;;;;;42.95;27.25;;;2.80;99.90;;;;;;5091569;28;20028;-52
2022/11/20 00:28:55;;;;;;;43.25;25.45;;;2.80;99.90;;;;;;5091337;28;20017;-52
2022/11/20 00:31:21;;;;;;;42.55;27.40;;;2.70;99.90;;;;;;5091288;28;20070;-51
2022/11/20 00:33:47;;;;;;;45.00;26.15;;;2.70;99.90;;;;;;5091316;28;20024;-51
2022/11/20 00:36:15;;;;;;;40.88;25.60;;;2.70;99.90;;;;;;5091317;28;20107;-53
2022/11/20 00:38:42;;;;;;;44.83;26.33;;;2.80;99.90;;;;;;5091252;28;20056;-52
2022/11/20 00:41:10;;;;;;;44.78;26.27;;;2.80;99.90;;;;;;5091300;28;20425;-51
2022/11/20 00:43:36;;;;;;;43.88;26.00;;;2.80;99.90;;;;;;5091373;28;20406;-52
2022/11/20 00:46:03;;;;;;;47.90;28.98;;;2.80;99.90;;;;;;5091269;28;20035;-53
2022/11/20 00:48:30;;;;;;;48.78;29.08;;;2.80;99.90;;;;;;5091177;28;20031;-52
2022/11/20 00:50:56;;;;;;;55.53;31.38;;;2.80;99.90;;;;;;5091165;28;20113;-51
2022/11/20 00:53:22;;;;;;;48.38;28.45;;;2.90;99.90;;;;;;5091151;28;20363;-51
2022/11/20 00:55:59;;;;;;;43.30;27.33;;;2.90;99.90;;;;;;5090929;28;20028;-50
2022/11/20 00:58:28;;;;;;;51.60;30.25;;;2.90;99.90;;;;;;5091342;28;20411;-51
2022/11/20 01:01:09;;;;;;;61.03;33.28;;;2.90;99.90;;;;;;5091036;28;20039;-50
2022/11/20 01:03:38;;;;;;;46.50;28.25;;;2.90;99.90;;;;;;5094860;28;20023;-50
2022/11/20 01:06:08;;;;;;;44.95;27.55;;;2.80;99.90;;;;;;5094871;28;20102;-53
2022/11/20 01:08:35;;;;;;;50.17;28.25;;;2.80;99.90;;;;;;5093478;28;20142;-53
2022/11/20 01:11:10;;;;;;;46.50;28.15;;;2.90;99.90;;;;;;5094729;28;20055;-52
2022/11/20 01:13:39;;;;;;;45.50;26.60;;;2.90;99.90;;;;;;5094508;28;20023;-50
2022/11/20 01:16:08;;;;;;;47.03;28.10;;;2.90;99.90;;;;;;5094645;28;20549;-50
2022/11/20 01:18:34;;;;;;;46.13;27.90;;;2.90;99.90;;;;;;5094455;28;20036;-55
2022/11/20 01:21:07;;;;;;;45.50;28.27;;;2.90;99.90;;;;;;5094606;28;20020;-53
2022/11/20 01:23:34;;;;;;;45.10;27.17;;;2.90;99.90;;;;;;5094517;28;20081;-54
2022/11/20 01:26:05;;;;;;;41.20;24.45;;;2.90;99.90;;;;;;5094494;28;20032;-53
2022/11/20 01:28:31;;;;;;;38.50;25.30;;;3.00;99.90;;;;;;5094477;28;20355;-53
2022/11/20 01:30:57;;;;;;;40.50;24.92;;;3.00;99.90;;;;;;5094210;28;20020;-55
2022/11/20 01:33:23;;;;;;;35.40;23.55;;;3.00;99.90;;;;;;5094373;28;20367;-49
2022/11/20 01:35:48;;;;;;;35.05;22.75;;;3.10;99.90;;;;;;5094188;28;20031;-51
2022/11/20 01:38:16;;;;;;;36.28;24.50;;;3.10;99.90;;;;;;5094374;28;20023;-52
2022/11/20 01:40:42;;;;;;;37.17;23.75;;;3.10;99.90;;;;;;5094073;28;20028;-51
2022/11/20 01:43:20;;;;;;;44.78;25.90;;;3.10;99.90;;;;;;5094042;28;20070;-51
2022/11/20 01:46:01;;;;;;;40.58;26.05;;;3.00;99.90;;;;;;5093963;28;20027;-53
2022/11/20 01:48:36;;;;;;;40.67;26.10;;;3.00;99.90;;;;;;5092682;28;20042;-51
2022/11/20 01:51:03;;;;;;;35.92;23.38;;;3.00;99.90;;;;;;5093947;28;20099;-51
2022/11/20 01:53:34;;;;;;;42.67;26.17;;;3.00;99.90;;;;;;5093997;28;20024;-53
2022/11/20 01:56:02;;;;;;;44.22;26.77;;;3.00;99.90;;;;;;5093811;28;20016;-53
2022/11/20 01:58:32;;;;;;;42.53;26.70;;;3.00;99.90;;;;;;5093823;28;20020;-52
2022/11/20 02:00:58;;;;;;;46.33;28.70;;;3.10;99.90;;;;;;5093703;28;20081;-54
2022/11/20 02:03:25;;;;;;;41.55;25.77;;;3.10;99.90;;;;;;5093762;28;20024;-52
2022/11/20 02:06:05;;;;;;;44.85;26.15;;;3.10;99.90;;;;;;5093597;28;20020;-50
2022/11/20 02:08:32;;;;;;;48.38;27.02;;;3.20;99.90;;;;;;5093450;28;20028;-51
2022/11/20 02:10:58;;;;;;;48.10;26.02;;;3.20;99.90;;;;;;5093621;28;20055;-52
2022/11/20 02:16:23;;;;;;;48.55;28.92;;;3.20;99.90;;;;;;5093528;28;20031;-51
2022/11/20 02:18:50;;;;;;;48.92;27.77;;;3.20;99.90;;;;;;5093277;28;20051;-52
2022/11/20 02:21:54;;;;;;;49.25;29.27;;;3.20;99.90;;;;;;5093631;28;20038;-52
2022/11/20 02:24:21;;;;;;;55.43;30.90;;;3.20;99.90;;;;;;5093408;28;20028;-53
2022/11/20 02:26:50;;;;;;;61.45;30.58;;;3.20;99.90;;;;;;5093052;28;20031;-52
2022/11/20 02:29:42;;;;;;;51.13;29.45;;;3.20;99.90;;;;;;5093153;28;20035;-53
2022/11/20 02:32:26;;;;;;;52.53;28.67;;;3.20;99.90;;;;;;5087347;28;20040;-51
2022/11/20 02:34:51;;;;;;;56.72;30.70;;;3.20;99.90;;;;;;5093029;28;20028;-51
2022/11/20 02:37:19;;;;;;;58.30;31.35;;;3.30;99.90;;;;;;5093113;28;20036;-52
2022/11/20 02:39:46;;;;;;;40.55;20.08;;;3.30;99.90;;;;;;5092822;28;20066;-52
2022/11/20 02:42:12;;;;;;;31.77;17.23;;;3.40;99.90;;;;;;5093000;28;20020;-52
2022/11/20 02:44:38;;;;;;;18.80;12.70;;;3.60;99.90;;;;;;5092802;28;20384;-51
2022/11/20 02:47:03;;;;;;;14.48;11.15;;;3.90;99.90;;;;;;5093106;28;20104;-50
2022/11/20 02:49:29;;;;;;;14.25;10.27;;;4.10;99.90;;;;;;5092825;28;20032;-51
2022/11/20 02:51:55;;;;;;;18.58;10.80;;;4.30;99.90;;;;;;5092682;28;20364;-53
2022/11/20 02:54:20;;;;;;;17.98;10.60;;;4.40;99.90;;;;;;5092682;28;20016;-52
2022/11/20 02:56:46;;;;;;;12.80;9.93;;;4.60;99.90;;;;;;5092598;28;20028;-52
2022/11/20 02:59:12;;;;;;;14.73;9.82;;;4.60;99.90;;;;;;5092804;28;20024;-50
2022/11/20 03:01:38;;;;;;;12.13;8.68;;;4.60;99.90;;;;;;5092468;28;20417;-53
2022/11/20 03:04:04;;;;;;;12.38;8.00;;;4.60;99.90;;;;;;5091290;28;20050;-51
2022/11/20 03:06:29;;;;;;;10.63;7.85;;;4.70;99.90;;;;;;5091278;28;20028;-52
2022/11/20 03:08:55;;;;;;;9.85;7.72;;;4.70;99.90;;;;;;5092189;28;20032;-52
2022/11/20 03:11:21;;;;;;;7.72;6.75;;;4.80;99.90;;;;;;5092441;28;20023;-51
2022/11/20 03:13:46;;;;;;;8.75;5.78;;;4.80;99.90;;;;;;5092428;28;20362;-52
2022/11/20 03:16:18;;;;;;;5.60;5.10;;;4.90;99.90;;;;;;5092238;28;20031;-52
2022/11/20 03:18:44;;;;;;;6.88;4.78;;;4.90;99.90;;;;;;5092105;28;20104;-51
2022/11/20 03:21:11;;;;;;;5.40;4.90;;;4.90;99.90;;;;;;5092306;28;20499;-53
2022/11/20 03:23:38;;;;;;;5.35;4.88;;;4.90;99.90;;;;;;5090359;28;20459;-51
2022/11/20 03:26:24;;;;;;;4.55;4.15;;;4.90;99.90;;;;;;5091881;28;20020;-51
2022/11/20 03:28:55;;;;;;;5.13;4.63;;;5.00;99.90;;;;;;5092128;28;20419;-53
2022/11/20 03:31:24;;;;;;;6.80;4.50;;;4.90;99.90;;;;;;5092062;28;20020;-51
2022/11/20 03:33:50;;;;;;;6.30;4.70;;;4.90;99.90;;;;;;5092090;28;20024;-50
2022/11/20 03:36:17;;;;;;;7.22;4.93;;;4.90;99.90;;;;;;5091973;28;20505;-52
2022/11/20 03:38:43;;;;;;;5.65;4.95;;;4.90;99.90;;;;;;5091810;28;20032;-51
2022/11/20 03:41:14;;;;;;;4.90;4.50;;;4.80;99.90;;;;;;5092045;28;20035;-51
2022/11/20 03:43:40;;;;;;;5.00;4.50;;;4.80;99.90;;;;;;5091870;28;20024;-50
2022/11/20 03:46:07;;;;;;;4.13;3.80;;;4.80;99.90;;;;;;5092028;28;20076;-51
2022/11/20 03:48:33;;;;;;;5.07;4.55;;;4.80;99.90;;;;;;5091777;28;20035;-52
2022/11/20 03:51:08;;;;;;;5.32;4.63;;;4.80;99.90;;;;;;5091751;28;20577;-50
2022/11/20 03:53:34;;;;;;;6.13;4.55;;;4.90;99.90;;;;;;5091710;28;20074;-52
2022/11/20 03:55:59;;;;;;;4.95;4.45;;;4.90;99.90;;;;;;5091862;28;21165;-52
2022/11/20 03:58:25;;;;;;;5.20;4.70;;;4.90;99.90;;;;;;5091861;28;20028;-51
2022/11/20 04:00:51;;;;;;;5.93;5.32;;;4.90;99.90;;;;;;5091567;28;20085;-51
2022/11/20 04:03:16;;;;;;;8.43;5.70;;;4.90;99.90;;;;;;5091813;28;20032;-51
2022/11/20 04:05:42;;;;;;;6.00;5.40;;;4.80;99.90;;;;;;5091669;28;20024;-52
2022/11/20 04:08:07;;;;;;;8.82;5.25;;;4.90;99.90;;;;;;5091451;28;20413;-51
2022/11/20 04:10:33;;;;;;;6.90;6.20;;;4.90;99.90;;;;;;5091643;28;20031;-52
2022/11/20 04:12:59;;;;;;;8.38;6.30;;;4.90;99.90;;;;;;5091619;28;20378;-51
2022/11/20 04:15:25;;;;;;;7.85;6.30;;;4.90;99.90;;;;;;5091775;28;20024;-50
2022/11/20 04:17:50;;;;;;;7.60;6.13;;;4.90;99.90;;;;;;5091498;28;20032;-51
2022/11/20 04:20:16;;;;;;;8.52;6.25;;;5.00;99.90;;;;;;5091485;28;20555;-51
2022/11/20 04:22:41;;;;;;;6.55;5.57;;;5.00;99.90;;;;;;5091122;28;20024;-51
2022/11/20 04:25:08;;;;;;;7.05;5.97;;;5.00;99.90;;;;;;5091448;28;20034;-51
2022/11/20 04:27:33;;;;;;;4.88;4.47;;;5.00;99.90;;;;;;5091443;28;20048;-53
2022/11/20 04:29:59;;;;;;;4.07;3.78;;;5.00;99.90;;;;;;5091823;28;20055;-53
2022/11/20 04:32:25;;;;;;;4.32;3.85;;;5.00;99.90;;;;;;5091326;28;20028;-51
2022/11/20 04:34:50;;;;;;;6.43;3.80;;;5.00;99.90;;;;;;5091391;28;20024;-52
2022/11/20 04:37:16;;;;;;;3.70;3.33;;;4.90;99.90;;;;;;5093873;28;20467;-52
2022/11/20 04:39:42;;;;;;;5.20;3.63;;;4.90;99.90;;;;;;5095203;28;20074;-51
2022/11/20 04:44:53;;;;;;;4.00;3.70;;;4.90;99.90;;;;;;5095455;28;20081;-52
2022/11/20 04:47:19;;;;;;;4.10;3.70;;;4.90;99.90;;;;;;5095403;28;20032;-53
2022/11/20 04:49:45;;;;;;;4.38;3.92;;;4.80;99.90;;;;;;5095009;28;20069;-50
2022/11/20 04:52:10;;;;;;;4.65;4.25;;;4.80;99.90;;;;;;5095147;28;20384;-52
2022/11/20 04:54:36;;;;;;;7.18;4.50;;;4.90;99.90;;;;;;5094954;28;20039;-51
2022/11/20 04:57:02;;;;;;;5.00;4.60;;;4.90;99.90;;;;;;5095033;28;20028;-51
2022/11/20 04:59:28;;;;;;;5.30;4.80;;;4.80;99.90;;;;;;5094917;28;20036;-52
2022/11/20 05:01:53;;;;;;;5.65;4.75;;;4.80;99.90;;;;;;5094899;28;20119;-51
2022/11/20 05:04:19;;;;;;;6.30;5.68;;;4.80;99.90;;;;;;5095001;28;20028;-52
2022/11/20 05:06:45;;;;;;;7.25;5.22;;;4.90;99.90;;;;;;5094763;28;20036;-52
2022/11/20 05:09:12;;;;;;;7.88;5.95;;;4.90;99.90;;;;;;5094824;28;20063;-52
2022/11/20 05:11:37;;;;;;;6.30;5.70;;;4.90;99.90;;;;;;5094659;28;20020;-51
2022/11/20 05:14:03;;;;;;;7.40;6.50;;;5.00;99.90;;;;;;5094691;28;20035;-51
2022/11/20 05:16:29;;;;;;;6.53;5.93;;;5.00;99.90;;;;;;5094716;28;20031;-50
2022/11/20 05:18:55;;;;;;;6.30;5.70;;;5.00;99.90;;;;;;5094398;28;20495;-52
2022/11/20 05:21:21;;;;;;;9.70;6.25;;;5.00;99.90;;;;;;5094497;28;20060;-53
2022/11/20 05:23:46;;;;;;;10.32;7.35;;;5.00;99.90;;;;;;5094568;28;20086;-50
2022/11/20 05:26:23;;;;;;;7.75;6.82;;;5.00;99.90;;;;;;5094578;28;20029;-52
2022/11/20 05:28:50;;;;;;;7.30;6.28;;;5.00;99.90;;;;;;5094288;28;20028;-51
2022/11/20 05:31:18;;;;;;;9.70;5.80;;;5.00;99.90;;;;;;5094468;28;20363;-52
2022/11/20 05:33:44;;;;;;;10.38;7.65;;;5.00;99.90;;;;;;5094292;28;20435;-50
2022/11/20 05:36:12;;;;;;;8.48;6.97;;;5.00;99.90;;;;;;5094271;28;20035;-52
2022/11/20 05:38:38;;;;;;;8.43;6.88;;;5.00;99.90;;;;;;5094147;28;20057;-50
2022/11/20 05:41:12;;;;;;;9.57;7.07;;;4.90;99.90;;;;;;5094142;28;20475;-52
2022/11/20 05:43:40;;;;;;;10.95;6.43;;;5.00;99.90;;;;;;5093998;28;20046;-52
2022/11/20 05:46:08;;;;;;;10.25;7.88;;;5.00;99.90;;;;;;5094186;28;20031;-53
2022/11/20 05:48:34;;;;;;;8.00;6.60;;;5.00;99.90;;;;;;5093596;28;20032;-53
2022/11/20 05:51:02;;;;;;;10.60;7.22;;;5.00;99.90;;;;;;5094092;28;20020;-50
2022/11/20 05:53:28;;;;;;;8.35;6.80;;;5.00;99.90;;;;;;5093922;28;20345;-51
2022/11/20 05:56:01;;;;;;;10.45;7.50;;;5.00;99.90;;;;;;5093785;28;20031;-52
2022/11/20 05:58:27;;;;;;;8.70;7.43;;;5.00;99.90;;;;;;5092538;28;20028;-51
2022/11/20 06:00:53;;;;;;;10.35;6.93;;;5.00;99.90;;;;;;5093657;28;20028;-51
2022/11/20 06:03:19;;;;;;;10.60;7.78;;;5.00;99.90;;;;;;5093757;28;20012;-51
2022/11/20 06:05:45;;;;;;;7.95;7.07;;;5.10;99.90;;;;;;5093635;28;20031;-55
2022/11/20 06:08:10;;;;;;;9.85;7.22;;;5.00;99.90;;;;;;5093497;28;20035;-53
2022/11/20 06:10:36;;;;;;;8.13;7.32;;;5.00;99.90;;;;;;5093516;28;20024;-54
2022/11/20 06:13:01;;;;;;;8.27;6.28;;;5.10;99.90;;;;;;5093632;28;20028;-52
2022/11/20 06:15:27;;;;;;;8.70;6.35;;;5.10;99.90;;;;;;5093705;28;20050;-50
2022/11/20 06:17:53;;;;;;;8.07;6.85;;;5.20;99.90;;;;;;5093355;28;20032;-52
2022/11/20 06:20:20;;;;;;;8.45;6.32;;;5.20;99.90;;;;;;5093461;28;20119;-51
2022/11/20 06:22:46;;;;;;;7.93;7.13;;;5.20;99.90;;;;;;5082082;28;20064;-54
2022/11/20 06:25:11;;;;;;;9.30;7.10;;;5.20;99.90;;;;;;5073119;28;20550;-52
2022/11/20 06:27:37;;;;;;;8.73;6.45;;;5.20;99.90;;;;;;5072992;28;20376;-52
2022/11/20 06:30:04;;;;;;;7.63;6.63;;;5.30;99.90;;;;;;5073185;28;20025;-54
2022/11/20 06:32:29;;;;;;;7.47;6.60;;;5.30;99.90;;;;;;5072969;28;20059;-51
2022/11/20 06:34:55;;;;;;;8.25;5.63;;;5.20;99.90;;;;;;5072830;28;20020;-52
2022/11/20 06:37:21;;;;;;;6.78;5.95;;;5.30;99.90;;;;;;5072694;28;20037;-51
2022/11/20 06:39:46;;;;;;;8.25;7.22;;;5.30;99.90;;;;;;5072487;28;20025;-52
2022/11/20 06:42:12;;;;;;;7.25;6.55;;;5.30;99.90;;;;;;5072945;28;20070;-54
2022/11/20 06:44:37;;;;;;;8.80;7.22;;;5.20;99.90;;;;;;5072740;28;20055;-54
2022/11/20 06:47:03;;;;;;;7.30;6.60;;;5.20;99.90;;;;;;5072358;28;20036;-53
2022/11/20 06:49:29;;;;;;;11.18;8.70;;;5.30;99.90;;;;;;5072459;28;20059;-54
2022/11/20 06:51:54;;;;;;;12.52;8.02;;;5.30;99.90;;;;;;5072160;28;20032;-52
2022/11/20 06:54:20;;;;;;;9.02;7.93;;;5.30;99.90;;;;;;5072240;28;20107;-53
2022/11/20 06:56:58;;;;;;;9.07;7.85;;;5.20;99.90;;;;;;5072151;28;20115;-54
2022/11/20 06:59:26;;;;;;;11.27;8.98;;;5.30;99.90;;;;;;5071451;28;20028;-52
2022/11/20 07:01:52;;;;;;;8.93;8.00;;;5.20;99.90;;;;;;5070947;28;20020;-51
2022/11/20 07:04:18;;;;;;;8.07;7.25;;;5.30;99.90;;;;;;5070851;28;20103;-54
2022/11/20 07:06:44;;;;;;;12.43;10.00;;;5.30;99.90;;;;;;5071517;28;20048;-52
2022/11/20 07:09:09;;;;;;;13.20;8.73;;;5.20;99.90;;;;;;5071892;28;20654;-51
2022/11/20 07:11:35;;;;;;;11.45;8.88;;;5.30;99.90;;;;;;5072101;28;20372;-54
2022/11/20 07:14:00;;;;;;;8.75;7.07;;;5.20;99.90;;;;;;5072221;28;20067;-53
2022/11/20 07:16:27;;;;;;;9.13;7.95;;;5.20;99.90;;;;;;5072155;28;20484;-54
2022/11/20 07:18:52;;;;;;;8.57;7.43;;;5.20;99.90;;;;;;5071656;28;20044;-52
2022/11/20 07:21:18;;;;;;;31.27;15.07;;;5.20;99.90;;;;;;5072034;28;20043;-53
2022/11/20 07:23:43;;;;;;;8.48;6.65;;;5.20;99.90;;;;;;5071856;28;20050;-52
2022/11/20 07:26:10;;;;;;;11.68;7.53;;;5.30;99.90;;;;;;5072057;28;20043;-56
2022/11/20 07:28:36;;;;;;;9.30;7.30;;;5.30;99.90;;;;;;5072011;28;20024;-56
2022/11/20 07:31:02;;;;;;;11.30;7.70;;;5.40;99.90;;;;;;5071614;28;20031;-54
2022/11/20 07:33:28;;;;;;;13.57;7.65;;;5.40;99.90;;;;;;5071432;28;20487;-50
2022/11/20 07:35:54;;;;;;;12.55;8.88;;;5.30;99.90;;;;;;5071727;28;20104;-55
2022/11/20 07:38:19;;;;;;;12.23;9.32;;;5.30;99.90;;;;;;5070437;28;20021;-54
2022/11/20 07:40:45;;;;;;;15.23;9.27;;;5.40;99.90;;;;;;5071695;28;20017;-53
2022/11/20 07:43:11;;;;;;;14.55;8.82;;;5.40;99.90;;;;;;5071062;28;20029;-54
2022/11/20 07:45:36;;;;;;;10.23;8.90;;;5.30;99.90;;;;;;5071553;28;20031;-52
2022/11/20 07:48:02;;;;;;;17.20;11.90;;;5.30;99.90;;;;;;5071393;28;20123;-54
2022/11/20 07:50:28;;;;;;;16.17;12.07;;;5.30;99.90;;;;;;5071700;28;20127;-55
2022/11/20 07:53:01;;;;;;;8.48;6.90;;;5.30;99.90;;;;;;5071360;28;20063;-50
2022/11/20 07:55:27;;;;;;;9.05;7.35;;;5.40;99.90;;;;;;5071703;28;20028;-50
2022/11/20 07:57:56;;;;;;;10.13;7.45;;;5.40;99.90;;;;;;5071166;28;20353;-53
2022/11/20 08:00:22;;;;;;;8.85;7.25;;;5.40;99.90;;;;;;5071397;28;20479;-51
2022/11/20 08:02:48;;;;;;;8.07;7.05;;;5.50;99.90;;;;;;5071187;28;20029;-53
2022/11/20 08:05:14;;;;;;;12.50;7.95;;;5.60;99.90;;;;;;5074157;28;20012;-53
2022/11/20 08:07:41;;;;;;;9.75;6.22;;;5.60;99.90;;;;;;5091163;28;20039;-53
2022/11/20 08:10:09;;;;;;;21.83;12.32;;;5.50;99.90;;;;;;5092044;28;20039;-54
2022/11/20 08:15:29;;;;;;;18.45;12.00;;;5.60;99.90;;;;;;5096079;28;20039;-50
2022/11/20 08:18:11;;;;;;;16.58;10.30;;;5.60;99.90;;;;;;5094149;28;20479;-52
2022/11/20 08:20:37;;;;;;;9.93;7.40;;;5.60;99.90;;;;;;5095406;28;20556;-52
2022/11/20 08:23:05;;;;;;;10.40;7.60;;;5.80;99.90;;;;;;5095418;28;20032;-51
2022/11/20 08:25:32;;;;;;;8.75;7.13;;;5.90;99.90;;;;;;5095629;28;20027;-54
2022/11/20 08:27:59;;;;;;;7.47;6.28;;;5.90;99.90;;;;;;5094014;28;20499;-52
2022/11/20 08:30:26;;;;;;;9.40;7.07;;;6.00;99.90;;;;;;5095468;28;20028;-51
2022/11/20 08:32:54;;;;;;;6.82;6.13;;;6.00;99.90;;;;;;5095125;28;20505;-53
2022/11/20 08:35:20;;;;;;;7.53;6.38;;;6.10;99.90;;;;;;5095614;28;20463;-52
2022/11/20 08:37:47;;;;;;;8.65;6.43;;;6.20;99.90;;;;;;5094974;28;20658;-50
2022/11/20 08:40:12;;;;;;;9.20;5.43;;;6.20;99.90;;;;;;5095199;28;20111;-51
2022/11/20 08:42:49;;;;;;;8.48;5.40;;;6.30;99.90;;;;;;5094955;28;20111;-51
2022/11/20 08:45:16;;;;;;;6.10;5.50;;;6.30;99.90;;;;;;5095270;28;20024;-50
2022/11/20 08:47:42;;;;;;;8.02;5.93;;;6.30;99.90;;;;;;5093543;28;20047;-53
2022/11/20 08:50:09;;;;;;;6.00;5.45;;;6.40;99.90;;;;;;5095137;28;20024;-52
2022/11/20 08:52:35;;;;;;;5.78;5.10;;;6.60;99.90;;;;;;5094741;28;20024;-52
2022/11/20 08:55:01;;;;;;;8.80;7.00;;;6.60;99.90;;;;;;5094939;28;20069;-54
2022/11/20 08:57:26;;;;;;;7.55;5.97;;;6.70;99.90;;;;;;5094829;28;20032;-51
2022/11/20 08:59:52;;;;;;;12.35;7.85;;;6.60;99.90;;;;;;5094678;28;20161;-50
2022/11/20 09:02:17;;;;;;;6.50;5.18;;;6.70;99.90;;;;;;5094638;28;20368;-52
2022/11/20 09:04:43;;;;;;;10.70;6.10;;;6.70;99.90;;;;;;5094604;28;20523;-51
2022/11/20 09:07:09;;;;;;;15.73;8.15;;;6.90;99.90;;;;;;5094555;28;20020;-52
2022/11/20 09:09:34;;;;;;;13.55;7.85;;;6.90;99.90;;;;;;5094489;28;20542;-53
2022/11/20 09:12:00;;;;;;;18.33;11.68;;;6.90;99.90;;;;;;5094436;28;20157;-52
2022/11/20 09:14:28;;;;;;;16.38;8.23;;;6.80;99.90;;;;;;5094632;28;20035;-52
2022/11/20 09:16:55;;;;;;;28.73;13.90;;;6.80;99.90;;;;;;5094717;28;20016;-52
2022/11/20 09:19:21;;;;;;;13.00;8.88;;;6.90;99.90;;;;;;5094483;28;20101;-51
2022/11/20 09:21:46;;;;;;;24.38;10.30;;;7.10;99.90;;;;;;5093916;28;20024;-52
2022/11/20 09:24:12;;;;;;;16.95;9.85;;;7.50;99.90;;;;;;5093165;28;20032;-57
2022/11/20 09:26:38;;;;;;;18.40;9.77;;;8.40;99.90;;;;;;5094016;28;20379;-53
2022/11/20 09:29:03;;;;;;;23.52;12.52;;;9.20;99.90;;;;;;5093876;28;20024;-50
2022/11/20 09:31:29;;;;;;;3.70;3.40;;;10.40;99.90;;;;;;5093937;28;20090;-54
2022/11/20 09:33:54;;;;;;;2.65;2.45;;;12.30;99.90;;;;;;5093773;28;20344;-51
2022/11/20 09:36:20;;;;;;;21.92;10.82;;;13.10;95.90;;;;;;5093656;28;20094;-51
2022/11/20 09:38:47;;;;;;;6.38;3.65;;;12.50;96.40;;;;;;5093361;28;20028;-55
2022/11/20 09:41:28;;;;;;;15.50;10.13;;;13.60;93.20;;;;;;5093457;28;20016;-52
2022/11/20 09:44:18;;;;;;;11.48;6.30;;;13.00;93.10;;;;;;5093921;28;20029;-51
2022/11/20 09:46:59;;;;;;;11.73;5.60;;;13.00;93.80;;;;;;5093972;28;20031;-53
2022/11/20 09:50:02;;;;;;;7.55;4.85;;;14.00;90.50;;;;;;5093967;28;20127;-54
2022/11/20 09:52:49;;;;;;;8.50;5.63;;;13.80;90.90;;;;;;5094036;28;20028;-54
2022/11/20 09:55:15;;;;;;;3.72;2.72;;;13.50;90.70;;;;;;5093859;28;20031;-53
2022/11/20 09:57:45;;;;;;;12.38;8.15;;;14.30;89.80;;;;;;5093649;28;20008;-51
2022/11/20 10:00:14;;;;;;;11.68;7.90;;;13.80;89.20;;;;;;5093753;28;20047;-54
2022/11/20 10:02:42;;;;;;;6.18;4.30;;;14.00;88.40;;;;;;5093483;28;20028;-55
2022/11/20 10:05:13;;;;;;;6.35;4.43;;;13.40;88.30;;;;;;5093665;28;20375;-54
2022/11/20 10:07:43;;;;;;;3.53;2.97;;;13.30;89.40;;;;;;5093324;28;20367;-53
2022/11/20 10:10:21;;;;;;;2.85;2.65;;;14.10;87.80;;;;;;5093588;28;20093;-51
2022/11/20 10:13:10;;;;;;;2.85;2.63;;;12.40;89.70;;;;;;5093445;28;20024;-52
2022/11/20 10:15:38;;;;;;;2.03;1.83;;;12.80;87.90;;;;;;5093439;28;20347;-52
2022/11/20 10:18:29;;;;;;;1.35;1.35;;;12.10;88.90;;;;;;5093359;28;20455;-54
2022/11/20 10:21:24;;;;;;;3.67;1.75;;;13.50;87.50;;;;;;5092423;28;20127;-53
2022/11/20 10:23:57;;;;;;;4.57;2.92;;;14.90;80.90;;;;;;5093280;28;20035;-52
2022/11/20 10:26:47;;;;;;;4.72;3.30;;;14.50;79.40;;;;;;5093050;28;20020;-52
2022/11/20 10:29:15;;;;;;;15.85;9.07;;;14.20;80.70;;;;;;5093176;28;20544;-52
2022/11/20 10:31:49;;;;;;;15.70;7.72;;;14.40;78.40;;;;;;5092696;28;20375;-52
2022/11/20 10:34:38;;;;;;;10.07;5.65;;;13.40;79.60;;;;;;5092011;28;20031;-55
2022/11/20 10:37:25;;;;;;;4.95;3.05;;;14.20;80.80;;;;;;5092656;28;20066;-52
2022/11/20 10:40:31;;;;;;;8.38;4.40;;;13.60;79.00;;;;;;5092571;28;20491;-52
2022/11/20 10:43:08;;;;;;;1.63;1.52;;;12.60;81.90;;;;;;5092819;28;20354;-55
2022/11/20 10:46:03;;;;;;;4.32;2.78;;;12.00;88.00;;;;;;5092636;28;20047;-53
2022/11/20 10:48:31;;;;;;;5.00;3.63;;;11.30;87.10;;;;;;5092670;28;20065;-51
2022/11/20 10:51:15;;;;;;;10.63;6.78;;;10.40;90.00;;;;;;5092520;28;20075;-52
2022/11/20 10:54:06;;;;;;;2.80;1.90;;;10.20;91.90;;;;;;5092337;28;20016;-55
2022/11/20 10:56:41;;;;;;;2.95;1.80;;;10.40;92.50;;;;;;5092592;28;20081;-54
2022/11/20 10:59:13;;;;;;;3.28;2.38;;;10.20;92.60;;;;;;5092587;28;20048;-52
2022/11/20 11:01:42;;;;;;;2.63;2.42;;;9.90;92.40;;;;;;5092353;28;20031;-54
2022/11/20 11:04:32;;;;;;;2.58;2.38;;;9.50;92.20;;;;;;5092489;28;20067;-52
2022/11/20 11:07:10;;;;;;;2.20;2.00;;;9.50;92.80;;;;;;5075832;28;20035;-52
2022/11/20 11:09:42;;;;;;;5.63;2.58;;;9.50;92.20;;;;;;5061513;28;20032;-51
2022/11/20 11:12:09;;;;;;;7.47;2.77;;;9.30;93.60;;;;;;5060341;28;20028;-51
2022/11/20 11:14:47;;;;;;;2.30;1.90;;;9.30;94.00;;;;;;5061475;28;20451;-55
2022/11/20 11:17:31;;;;;;;3.15;1.50;;;9.20;93.00;;;;;;5061644;28;20461;-51
2022/11/20 11:20:24;;;;;;;2.30;2.17;;;9.20;92.50;;;;;;5076796;28;22665;-52
2022/11/20 11:22:54;;;;;;;3.08;2.08;;;9.00;93.10;;;;;;5060560;28;20041;-54
2022/11/20 11:25:36;;;;;;;2.40;2.20;;;9.40;94.20;;;;;;5061121;28;20036;-52
2022/11/20 11:28:20;;;;;;;2.20;1.60;;;9.70;94.20;;;;;;5061020;28;20056;-52
2022/11/20 11:30:49;;;;;;;4.80;1.67;;;10.80;91.70;;;;;;5076732;28;20021;-54
2022/11/20 11:33:24;;;;;;;1.70;1.60;;;11.60;89.20;;;;;;5060799;28;20570;-51
2022/11/20 11:35:57;;;;;;;2.00;1.60;;;11.90;86.70;;;;;;5060470;28;20028;-52
2022/11/20 11:38:37;;;;;;;3.45;1.65;;;11.20;86.80;;;;;;5061202;28;20058;-52
2022/11/20 11:41:04;;;;;;;2.00;1.83;;;10.90;89.20;;;;;;5060980;28;20067;-52
2022/11/20 11:46:21;;;;;;;1.83;1.73;;;10.50;90.50;;;;;;5060735;28;20139;-55
2022/11/20 11:49:05;;;;;;;2.00;1.90;;;10.30;91.20;;;;;;5060908;28;20029;-54
2022/11/20 11:51:36;;;;;;;;;;;10.10;90.60;;;;;;5061594;28;20032;-52
2022/11/20 11:54:23;;;;;;;2.40;2.00;;;10.20;92.20;;;;;;5060625;28;19927;-55
2022/11/20 11:56:50;;;;;;;1.98;1.88;;;10.40;91.10;;;;;;5060919;28;20028;-53
2022/11/20 12:02:46;;;;;;;2.78;1.98;;;10.20;90.70;;;;;;5059901;28;20045;-54
2022/11/20 12:05:23;;;;;;;1.90;1.80;;;10.40;90.30;;;;;;5061538;28;20082;-53
2022/11/20 12:08:03;;;;;;;2.20;1.88;;;10.30;90.10;;;;;;5060663;28;20059;-51
2022/11/20 12:10:41;;;;;;;2.58;2.38;;;10.40;90.50;;;;;;5061047;28;20032;-55
2022/11/20 12:13:21;;;;;;;2.50;2.30;;;10.00;90.70;;;;;;5060676;28;20039;-51
2022/11/20 12:15:48;;;;;;;1.65;1.55;;;9.90;91.50;;;;;;5060562;28;20364;-52
2022/11/20 12:18:20;;;;;;;2.30;2.10;;;9.50;91.70;;;;;;5060745;28;20045;-54
2022/11/20 12:21:04;;;;;;;3.38;2.83;;;9.50;91.50;;;;;;5060094;28;20055;-52
2022/11/20 12:24:07;;;;;;;12.23;6.13;;;9.70;92.20;;;;;;5061110;28;20368;-52
2022/11/20 12:26:51;;;;;;;4.78;3.05;;;10.40;91.60;;;;;;5076079;28;20541;-52
2022/11/20 12:29:35;;;;;;;1.92;1.63;;;11.10;90.20;;;;;;5060187;28;20105;-51
2022/11/20 12:32:39;;;;;;;39.40;19.45;;;11.30;91.30;;;;;;5076538;28;20682;-51
2022/11/20 12:35:24;;;;;;;2.30;2.10;;;10.50;91.80;;;;;;5060151;28;20024;-51
2022/11/20 12:38:19;;;;;;;10.45;7.53;;;10.30;92.80;;;;;;5060614;28;20380;-54
2022/11/20 12:40:57;;;;;;;5.38;3.20;;;10.10;92.10;;;;;;5060114;28;20378;-55
2022/11/20 12:46:16;;;;;;;3.40;2.83;;;10.10;94.00;;;;;;5060416;28;20521;-54
2022/11/20 12:49:20;;;;;;;19.02;8.82;;;10.30;92.40;;;;;;5060412;28;20032;-51
2022/11/20 12:52:06;;;;;;;2.43;1.90;;;10.30;92.40;;;;;;5060170;28;20463;-51
2022/11/20 12:54:40;;;;;;;5.35;2.22;;;10.50;92.10;;;;;;5060520;28;20479;-51
2022/11/20 12:57:44;;;;;;;2.05;1.40;;;10.60;92.70;;;;;;5060563;28;20032;-51
2022/11/20 13:00:21;;;;;;;3.38;1.70;;;10.40;91.70;;;;;;5064142;28;20441;-54
2022/11/20 13:03:09;;;;;;;3.58;2.30;;;10.20;93.20;;;;;;5078797;28;20161;-53
2022/11/20 13:05:44;;;;;;;2.15;1.92;;;9.70;93.00;;;;;;5076538;28;20027;-53
2022/11/20 13:08:29;;;;;;;22.15;10.25;;;9.70;93.20;;;;;;5074299;28;20388;-53
2022/11/20 13:11:16;;;;;;;147.68;50.85;;;9.60;93.70;;;;;;5074385;28;20023;-51
2022/11/20 13:14:26;;;;;;;8.65;4.10;;;9.50;93.00;;;;;;5074202;28;20091;-51
2022/11/20 13:17:16;;;;;;;23.33;9.20;;;9.40;93.50;;;;;;5074293;28;20061;-52
2022/11/20 13:19:54;;;;;;;23.00;9.88;;;9.30;93.50;;;;;;5074055;28;20045;-51
2022/11/20 13:22:28;;;;;;;22.70;12.05;;;9.20;93.30;;;;;;5074492;28;20023;-51
2022/11/20 13:24:54;;;;;;;19.58;9.13;;;9.10;93.30;;;;;;5072898;28;20033;-51